Time;durP1;ratioP1;P1;durP2;ratioP2;P2;SDS_P1;SDS_P2;PMS_P1;PMS_P2;Temp;Humidity;BMP_temperature;BMP_pressure;BME280_temperature;BME280_humidity;BME280_pressure;Samples;Min_cycle;Max_cycle;Signal;HPM_P1;HPM_P2
2022/03/03 00:00:50;;;;;;;;;;;;;;;-1.15;82.79;101828.53;2010559;29;20037;-59
2022/03/03 00:01:50;;;;;;;;;;;;;;;-1.18;82.60;101825.88;2010100;29;19922;-59
2022/03/03 00:02:50;;;;;;;;;;;;;;;-1.21;82.34;101825.81;2009661;29;25115;-59
2022/03/03 00:03:51;;;;;;;;;;;;;;;-1.22;82.12;101824.09;2010388;29;19916;-60
2022/03/03 00:04:51;;;;;;;;;;;;;;;-1.25;81.91;101827.44;2010442;29;25122;-59
2022/03/03 00:05:51;;;;;;;;;;;;;;;-1.25;81.43;101821.44;2010744;29;20026;-59
2022/03/03 00:06:51;;;;;;;;;;;;;;;-1.26;81.07;101824.84;2010231;29;19912;-59
2022/03/03 00:07:52;;;;;;;15.27;10.27;;;;;;;-1.27;81.52;101818.84;2011185;29;20323;-59
2022/03/03 00:08:52;;;;;;;;;;;;;;;-1.28;81.44;101811.13;2010780;29;20033;-59
2022/03/03 00:09:53;;;;;;;;;;;;;;;-1.31;81.62;101812.81;2010763;29;19951;-59
2022/03/03 00:10:53;;;;;;;;;;;;;;;-1.33;82.02;101814.44;2010718;29;20037;-60
2022/03/03 00:11:53;;;;;;;;;;;;;;;-1.33;81.78;101816.16;2010710;29;19935;-58
2022/03/03 00:12:53;;;;;;;;;;;;;;;-1.36;81.79;101808.41;2010675;29;19912;-59
2022/03/03 00:13:53;;;;;;;;;;;;;;;-1.43;82.39;101812.53;2010395;29;19912;-60
2022/03/03 00:14:54;;;;;;;;;;;;;;;-1.48;83.52;101808.97;2010338;29;20007;-60
2022/03/03 00:15:54;;;;;;;;;;;;;;;-1.51;85.31;101812.34;2010432;29;20038;-59
2022/03/03 00:16:54;;;;;;;;;;;;;;;-1.49;86.36;101800.44;2010560;29;19911;-59
2022/03/03 00:17:54;;;;;;;17.00;9.20;;;;;;;-1.50;86.53;101811.53;2017110;29;24077;-59
2022/03/03 00:18:54;;;;;;;;;;;;;;;-1.51;87.29;101809.78;2017487;29;20025;-59
2022/03/03 00:19:55;;;;;;;;;;;;;;;-1.50;87.47;101808.97;2010525;29;19943;-59
2022/03/03 00:20:55;;;;;;;;;;;;;;;-1.50;87.13;101806.41;2010114;29;19955;-59
2022/03/03 00:21:55;;;;;;;;;;;;;;;-1.47;86.66;101805.59;2010213;29;19918;-60
2022/03/03 00:22:55;;;;;;;;;;;;;;;-1.46;87.12;101804.78;2010373;29;24088;-59
2022/03/03 00:23:55;;;;;;;;;;;;;;;-1.45;86.72;101798.81;2010666;29;19919;-59
2022/03/03 00:24:56;;;;;;;;;;;;;;;-1.46;87.29;101808.22;2010254;29;20054;-59
2022/03/03 00:25:56;;;;;;;;;;;;;;;-1.49;87.06;101800.44;2010623;29;24064;-59
2022/03/03 00:26:56;;;;;;;;;;;;;;;-1.51;87.21;101808.94;2010456;29;20255;-59
2022/03/03 00:27:56;;;;;;;;;;;;;;;-1.54;87.65;101803.72;2010470;29;19963;-59
2022/03/03 00:28:56;;;;;;;;;;;;;;;-1.58;87.43;101808.78;2010585;29;19912;-60
2022/03/03 00:29:57;;;;;;;;;;;;;;;-1.62;87.69;101806.97;2010002;29;20476;-60
2022/03/03 00:30:57;;;;;;;;;;;;;;;-1.67;87.91;101802.56;2010337;29;20292;-61
2022/03/03 00:31:57;;;;;;;;;;;;;;;-1.71;87.94;101804.19;2010192;29;20269;-59
2022/03/03 00:32:57;;;;;;;;;;;;;;;-1.72;88.31;101812.69;2009659;29;24158;-59
2022/03/03 00:33:57;;;;;;;;;;;;;;;-1.72;88.32;101805.00;2009820;29;19998;-59
2022/03/03 00:34:57;;;;;;;;;;;;;;;-1.70;88.91;101808.47;2010264;29;19911;-59
2022/03/03 00:35:58;;;;;;;;;;;;;;;-1.70;88.61;101803.38;2010247;29;19919;-59
2022/03/03 00:36:58;;;;;;;;;;;;;;;-1.72;88.94;101807.56;2010171;29;20041;-59
2022/03/03 00:37:58;;;;;;;;;;;;;;;-1.72;89.53;101803.31;2010262;29;20014;-59
2022/03/03 00:38:58;;;;;;;;;;;;;;;-1.66;89.29;101807.72;2010069;29;19999;-59
2022/03/03 00:39:58;;;;;;;;;;;;;;;-1.58;89.29;101802.78;2010241;29;19919;-59
2022/03/03 00:40:58;;;;;;;;;;;;;;;-1.51;89.24;101803.81;2010256;29;20030;-59
2022/03/03 00:41:59;;;;;;;;;;;;;;;-1.46;88.78;101808.22;2017412;29;20235;-59
2022/03/03 00:42:59;;;;;;;;;;;;;;;-1.41;88.65;101800.59;2017529;29;20492;-60
2022/03/03 00:43:59;;;;;;;;;;;;;;;-1.40;87.94;101807.47;2010585;29;20358;-58
2022/03/03 00:44:59;;;;;;;;;;;;;;;-1.44;87.97;101797.97;2010693;29;20256;-59
2022/03/03 00:45:59;;;;;;;;;;;;;;;-1.48;87.76;101803.84;2010184;29;20252;-59
2022/03/03 00:46:59;;;;;;;;;;;;;;;-1.53;87.05;101802.91;2010183;29;19919;-59
2022/03/03 00:48:00;;;;;;;;;;;;;;;-1.57;87.20;101800.25;2010536;29;19912;-59
2022/03/03 00:49:01;;;;;;;;;;;;;;;-1.60;87.91;101797.66;2010294;29;20201;-59
2022/03/03 00:50:01;;;;;;;;;;;;;;;-1.61;87.38;101793.34;2010398;29;20041;-58
2022/03/03 00:51:06;;;;;;;;;;;;;;;-1.62;87.72;101791.59;2017664;29;20044;-58
2022/03/03 00:52:07;;;;;;;;;;;;;;;-1.63;87.26;101795.00;2016929;29;20328;-60
2022/03/03 00:53:07;;;;;;;;;;;;;;;-1.66;87.84;101797.50;2010671;29;19957;-59
2022/03/03 00:54:07;;;;;;;;;;;;;;;-1.70;87.76;101796.56;2010362;29;24073;-60
2022/03/03 00:55:08;;;;;;;;;;;;;;;-1.72;88.07;101799.88;2017257;29;24147;-59
2022/03/03 00:56:08;;;;;;;;;;;;;;;-1.75;88.39;101799.84;2017476;29;25122;-59
2022/03/03 00:57:08;;;;;;;;;;;;;;;-1.77;88.03;101799.78;2010745;29;20029;-59
2022/03/03 00:58:09;;;;;;;;;;;;;;;-1.79;88.51;101795.47;2010453;29;25094;-59
2022/03/03 00:59:10;;;;;;;;;;;;;;;-1.79;89.05;101804.00;2017660;29;20134;-59
2022/03/03 01:00:11;;;;;;;16.35;11.05;;;;;;;-1.80;88.66;101799.72;2017795;29;24294;-59
2022/03/03 01:01:12;;;;;;;;;;;;;;;-1.79;88.59;101793.75;2009962;29;20025;-60
2022/03/03 01:02:12;;;;;;;;;;;;;;;-1.82;88.30;101788.56;2010036;29;19912;-59
2022/03/03 01:03:12;;;;;;;;;;;;;;;-1.85;88.06;101793.63;2010301;29;20062;-59
2022/03/03 01:04:13;;;;;;;;;;;;;;;-1.87;87.88;101796.16;2010077;29;25069;-58
2022/03/03 01:05:13;;;;;;;;;;;;;;;-1.91;87.48;101794.34;2009712;29;19964;-59
2022/03/03 01:06:14;;;;;;;;;;;;;;;-1.92;87.91;101795.16;2009720;29;19916;-60
2022/03/03 01:07:14;;;;;;;;;;;;;;;-1.91;88.21;101796.03;2010449;29;19919;-60
2022/03/03 01:08:14;;;;;;;;;;;;;;;-1.94;87.48;101794.25;2010579;29;19912;-59
2022/03/03 01:09:14;;;;;;;;;;;;;;;-1.96;87.85;101795.91;2010713;29;20023;-59
2022/03/03 01:10:14;;;;;;;;;;;;;;;-2.00;87.92;101791.53;2010699;29;20290;-59
2022/03/03 01:11:15;;;;;;;;;;;;;;;-2.04;87.33;101792.28;2010071;29;20067;-60
2022/03/03 01:12:16;;;;;;;;;;;;;;;-2.04;88.50;101787.16;2010392;29;20243;-60
2022/03/03 01:13:16;;;;;;;;;;;;;;;-2.04;88.13;101787.16;2010531;29;20049;-58
2022/03/03 01:14:21;;;;;;;;;;;;;;;-2.08;88.21;101786.25;2009856;29;20022;-61
2022/03/03 01:15:21;;;;;;;;;;;;;;;-2.11;88.08;101787.03;2009627;29;20327;-60
2022/03/03 01:16:21;;;;;;;;;;;;;;;-2.11;87.60;101789.59;2010484;29;20052;-60
2022/03/03 01:17:22;;;;;;;;;;;;;;;-2.12;87.46;101787.84;2010260;29;19920;-59
2022/03/03 01:18:22;;;;;;;;;;;;;;;-2.12;88.21;101792.94;2010207;29;20044;-59
2022/03/03 01:19:22;;;;;;;;;;;;;;;-2.12;87.40;101789.56;2010230;29;20084;-59
2022/03/03 01:20:22;;;;;;;;;;;;;;;-2.12;87.69;101789.56;2010362;29;20049;-59
2022/03/03 01:21:22;;;;;;;;;;;;;;;-2.16;88.22;101793.69;2010097;29;20381;-60
2022/03/03 01:22:23;;;;;;;;;;;;;;;-2.17;87.86;101786.88;2017097;29;24081;-60
2022/03/03 01:23:23;;;;;;;;;;;;;;;-2.15;88.69;101789.47;2016910;29;19912;-60
2022/03/03 01:24:23;;;;;;;;;;;;;;;-2.13;89.27;101788.66;2009930;29;20251;-60
2022/03/03 01:25:24;;;;;;;;;;;;;;;-2.09;89.45;101782.81;2009971;29;19912;-59
2022/03/03 01:26:24;;;;;;;;;;;;;;;-2.07;88.98;101783.72;2009778;29;20018;-60
2022/03/03 01:27:24;;;;;;;;;;;;;;;-2.05;89.01;101785.44;2010430;29;20096;-59
2022/03/03 01:28:25;;;;;;;;;;;;;;;-2.05;89.44;101785.44;2010073;29;20753;-59
2022/03/03 01:29:25;;;;;;;;;;;;;;;-2.08;88.86;101786.25;2010093;29;20235;-59
2022/03/03 01:30:25;;;;;;;;;;;;;;;-2.13;89.56;101783.56;2009908;29;20562;-59
2022/03/03 01:31:26;;;;;;;;;;;;;;;-2.14;89.39;101786.94;2010673;29;20066;-60
2022/03/03 01:32:26;;;;;;;;;;;;;;;-2.12;89.19;101790.41;2010493;29;20045;-60
2022/03/03 01:33:26;;;;;;;;;;;;;;;-2.09;89.49;101790.47;2017200;29;20239;-59
2022/03/03 01:34:26;;;;;;;;;;;;;;;-2.05;90.17;101780.31;2016949;29;20039;-60
2022/03/03 01:35:27;;;;;;;;;;;;;;;-2.09;89.47;101785.38;2010379;29;19912;-59
2022/03/03 01:36:27;;;;;;;;;;;;;;;-2.11;89.86;101787.03;2009720;29;25062;-59
2022/03/03 01:37:27;;;;;;;;;;;;;;;-2.12;89.77;101777.59;2010142;29;20278;-60
2022/03/03 01:38:27;;;;;;;;;;;;;;;-2.15;89.93;101777.56;2010130;29;20043;-59
2022/03/03 01:39:27;;;;;;;;;;;;;;;-2.17;89.99;101771.50;2009945;29;19912;-60
2022/03/03 01:40:28;;;;;;;;;;;;;;;-2.18;89.87;101771.47;2009568;29;24074;-60
2022/03/03 01:41:28;;;;;;;;;;;;;;;-2.20;90.28;101766.31;2009946;29;19912;-60
2022/03/03 01:42:28;;;;;;;;;;;;;;;-2.23;90.47;101771.34;2009956;29;19918;-59
2022/03/03 01:43:28;;;;;;;;;;;;;;;-2.27;89.72;101775.53;2009876;29;20267;-58
2022/03/03 01:44:29;;;;;;;;;;;;;;;-2.25;90.27;101770.47;2009840;29;19963;-60
2022/03/03 01:45:29;;;;;;;;;;;;;;;-2.26;90.31;101761.91;2009599;29;25147;-59
2022/03/03 01:46:30;;;;;;;;;;;;;;;-2.27;90.25;101769.53;2010007;29;25136;-60
2022/03/03 01:47:30;;;;;;;;;;;;;;;-2.30;90.70;101761.81;2010128;29;20038;-60
2022/03/03 01:48:30;;;;;;;;;;;;;;;-2.33;90.44;101760.00;2008886;29;20019;-60
2022/03/03 01:49:31;;;;;;;;;;;;;;;-2.36;89.70;101758.25;2009068;29;20337;-59
2022/03/03 01:50:31;;;;;;;;;;;;;;;-2.38;90.08;101762.47;2016729;29;20138;-59
2022/03/03 01:51:31;;;;;;;;;;;;;;;-2.41;89.80;101757.28;2016885;29;19927;-59
2022/03/03 01:52:31;;;;;;;;;;;;;;;-2.43;89.75;101756.34;2010087;29;19916;-59
2022/03/03 01:53:31;;;;;;;;;;;;;;;-2.44;90.51;101757.19;2010089;29;20735;-59
2022/03/03 01:54:32;;;;;;;;;;;;;;;-2.45;89.92;101758.03;2009876;29;20431;-60
2022/03/03 01:55:32;;;;;;;;;;;;;;;-2.45;90.77;101758.03;2009629;29;24094;-59
2022/03/03 01:56:33;;;;;;;;;;;;;;;-2.46;90.52;101759.69;2016934;29;19944;-59
2022/03/03 01:57:33;;;;;;;;;;;;;;;-2.49;89.99;101754.50;2017005;29;20015;-59
2022/03/03 01:58:33;;;;;;;;;;;;;;;-2.51;90.46;101757.84;2009449;29;19912;-59
2022/03/03 01:59:34;;;;;;;;;;;;;;;-2.53;90.45;101754.41;2009587;29;20033;-60
2022/03/03 02:00:34;;;;;;;;;;;;;;;-2.54;91.55;101757.78;2009822;29;20378;-60
2022/03/03 02:01:38;;;;;;;;;;;;;;;-2.55;90.86;101753.47;2009623;29;20726;-59
2022/03/03 02:02:38;;;;;;;;;;;;;;;-2.57;91.14;101753.44;2009465;29;20547;-60
2022/03/03 02:03:38;;;;;;;;;;;;;;;-2.58;91.33;101751.72;2009917;29;20034;-60
2022/03/03 02:04:39;;;;;;;;;;;;;;;-2.57;92.25;101745.75;2009428;29;20370;-60
2022/03/03 02:05:39;;;;;;;;;;;;;;;-2.55;92.34;101748.38;2008925;29;20019;-60
2022/03/03 02:06:40;;;;;;;;;;;;;;;-2.55;92.03;101745.81;2009495;29;19955;-60
2022/03/03 02:07:40;;;;;;;;;;;;;;;-2.53;92.42;101736.50;2009833;29;20019;-59
2022/03/03 02:08:40;;;;;;;;;;;;;;;-2.52;92.36;101735.66;2010016;29;20235;-59
2022/03/03 02:09:41;;;;;;;;;;;;;;;-2.51;93.00;101734.84;2009412;29;20346;-60
2022/03/03 02:10:41;;;;;;;;;;;;;;;-2.50;92.55;101736.59;2010925;29;20063;-60
2022/03/03 02:11:44;;;;;;;;;;;;;;;-2.50;91.97;101741.69;2016457;29;19916;-60
2022/03/03 02:12:44;;;;;;;;;;;;;;;-2.49;92.11;101738.31;2016488;29;20076;-60
2022/03/03 02:13:44;;;;;;;;;;;;;;;-2.48;92.63;101734.91;2010128;29;20033;-60
2022/03/03 02:14:46;;;;;;;;;;;;;;;-2.49;93.16;101733.19;2009803;29;24144;-59
2022/03/03 02:15:47;;;;;;;;;;;;;;;-2.48;92.81;101737.47;2017478;29;19911;-60
2022/03/03 02:16:47;;;;;;;;;;;;;;;-2.51;92.18;101727.16;2016947;29;20053;-59
2022/03/03 02:17:47;;;;;;;;;;;;;;;-2.53;92.65;101732.22;2010334;29;20615;-59
2022/03/03 02:18:47;;;;;;;;;;;;;;;-2.52;92.45;101734.00;2010388;29;19918;-59
2022/03/03 02:19:48;;;;;;;;;;;;;;;-2.51;93.00;101729.72;2009909;29;20500;-59
2022/03/03 02:20:48;;;;;;;;;;;;;;;-2.55;92.60;101727.91;2010167;29;20370;-58
2022/03/03 02:21:53;;;;;;;;;;;;;;;-2.62;92.96;101722.66;2010172;29;20084;-59
2022/03/03 02:22:54;;;;;;;;;;;;;;;-2.64;92.85;101729.41;2009791;29;20042;-59
2022/03/03 02:23:54;;;;;;;;;;;;;;;-2.65;92.97;101722.56;2009945;29;20054;-59
2022/03/03 02:24:54;;;;;;;;;;;;;;;-2.65;92.68;101722.56;2009950;29;24139;-58
2022/03/03 02:25:55;;;;;;;;;;;;;;;-2.66;92.90;101725.09;2009745;29;24064;-59
2022/03/03 02:26:55;;;;;;;;;;;;;;;-2.68;92.75;101721.59;2009766;29;20588;-59
2022/03/03 02:27:56;;;;;;;;;;;;;;;-2.68;93.07;101722.47;2009603;29;19995;-58
2022/03/03 02:28:56;;;;;;;;;;;;;;;-2.66;93.22;101717.41;2009459;29;19912;-59
2022/03/03 02:29:57;;;;;;;;;;;;;;;-2.66;93.47;101720.84;2009998;29;19991;-59
2022/03/03 02:30:58;;;;;;;;;;;;;;;-2.64;93.41;101718.34;2009934;29;19920;-59
2022/03/03 02:31:59;;;;;;;;;;;;;;;-2.62;93.74;101724.34;2009955;29;20307;-58
2022/03/03 02:32:59;;;;;;;;;;;;;;;-2.60;93.54;101723.53;2009608;29;24071;-58
2022/03/03 02:34:00;;;;;;;;;;;;;;;-2.61;94.02;101719.28;2009952;29;20323;-59
2022/03/03 02:35:00;;;;;;;;;;;;;;;-2.64;94.25;101718.34;2009462;29;19995;-59
2022/03/03 02:36:16;;;;;;;;;;;;;;;-2.68;93.82;101717.38;2010176;29;20007;-59
2022/03/03 02:37:17;;;;;;;25.40;12.30;;;;;;;-2.69;94.17;101719.88;2010406;29;20009;-59
2022/03/03 02:38:17;;;;;;;20.80;13.10;;;;;;;-2.70;94.02;101716.47;2010398;29;20021;-58
2022/03/03 02:39:17;;;;;;;;;;;;;;;-2.73;94.12;101714.69;2010365;29;20039;-59
2022/03/03 02:40:21;;;;;;;;;;;;;;;-2.75;94.68;101715.47;2017449;29;20028;-59
2022/03/03 02:41:22;;;;;;;;;;;;;;;-2.75;94.55;101715.47;2016769;29;20063;-58
2022/03/03 02:42:22;;;;;;;19.23;11.73;;;;;;;-2.77;94.16;101717.13;2010383;29;20050;-58
2022/03/03 02:43:22;;;;;;;;;;;;;;;-2.79;94.65;101717.09;2009822;29;20556;-59
2022/03/03 02:44:22;;;;;;;;;;;;;;;-2.80;94.53;101717.91;2009946;29;20651;-59
2022/03/03 02:45:23;;;;;;;;;;;;;;;-2.81;94.68;101720.44;2009752;29;19951;-59
2022/03/03 02:46:23;;;;;;;;;;;;;;;-2.81;94.92;101715.31;2009849;29;24054;-59
2022/03/03 02:47:23;;;;;;;;;;;;;;;-2.79;94.96;101724.75;2009698;29;19951;-58
2022/03/03 02:48:23;;;;;;;;;;;;;;;-2.75;95.22;101724.00;2009540;29;20397;-60
2022/03/03 02:49:23;;;;;;;;;;;;;;;-2.72;94.39;101726.66;2009017;29;20040;-59
2022/03/03 02:50:28;;;;;;;;;;;;;;;-2.73;94.30;101718.94;2009385;29;20107;-59
2022/03/03 02:51:28;;;;;;;;;;;;;;;-2.75;94.77;101720.56;2009069;29;24074;-58
2022/03/03 02:52:28;;;;;;;;;;;;;;;-2.74;94.87;101712.13;2009479;29;20032;-59
2022/03/03 02:53:28;;;;;;;;;;;;;;;-2.73;94.51;101708.72;2009508;29;19912;-58
2022/03/03 02:54:28;;;;;;;;;;;;;;;-2.72;94.76;101723.22;2008823;29;25073;-58
2022/03/03 02:55:29;;;;;;;;;;;;;;;-2.75;94.18;101720.56;2009401;29;20409;-58
2022/03/03 02:56:29;;;;;;;;;;;;;;;-2.77;94.29;101723.09;2010967;29;19912;-59
2022/03/03 02:58:48;;;;;;;;;;;;;;;-2.80;95.38;101711.94;2013428;29;20298;-58
2022/03/03 02:59:48;;;;;;;;;;;;;;;-2.81;95.33;101710.22;2010789;29;19959;-59
2022/03/03 03:00:48;;;;;;;;;;;;;;;-2.81;95.03;101711.06;2010718;29;24063;-59
2022/03/03 03:01:49;;;;;;;;;;;;;;;-2.80;95.07;101706.81;2010450;29;20039;-59
2022/03/03 03:02:49;;;;;;;;;;;;;;;-2.81;95.26;101710.22;2010488;29;19951;-59
2022/03/03 03:03:49;;;;;;;;;;;;;;;-2.82;95.09;101703.34;2010765;29;19912;-59
2022/03/03 03:04:49;;;;;;;;;;;;;;;-2.85;94.92;101710.13;2010531;29;20022;-57
2022/03/03 03:05:50;;;;;;;;;;;;;;;-2.85;95.61;101705.00;2010759;29;19916;-60
2022/03/03 03:06:50;;;;;;;;;;;;;;;-2.83;95.75;101712.72;2010682;29;19912;-59
2022/03/03 03:07:50;;;;;;;;;;;;;;;-2.79;95.58;101708.53;2010062;29;20366;-59
2022/03/03 03:08:50;;;;;;;;;;;;;;;-2.77;95.39;101709.47;2010637;29;19916;-59
2022/03/03 03:09:51;;;;;;;;;;;;;;;-2.80;95.62;101711.94;2010504;29;19968;-59
2022/03/03 03:10:51;;;;;;;;;;;;;;;-2.88;96.19;101704.91;2009019;29;20447;-59
2022/03/03 03:11:51;;;;;;;;;;;;;;;-2.89;95.71;101720.19;2013394;29;24098;-59
2022/03/03 03:12:51;;;;;;;;;;;;;;;-2.90;96.31;101719.34;2017806;29;25097;-59
2022/03/03 03:13:52;;;;;;;;;;;;;;;-2.91;96.07;101720.16;2018020;29;19942;-60
2022/03/03 03:14:52;;;;;;;;;;;;;;;-2.92;95.72;101715.88;2011084;29;20434;-59
2022/03/03 03:15:54;;;;;;;;;;;;;;;-2.91;96.48;101720.16;2010997;29;19999;-58
2022/03/03 03:16:54;;;;;;;;;;;;;;;-2.89;96.62;101712.53;2010805;29;20330;-58
2022/03/03 03:17:54;;;;;;;;;;;;;;;-2.88;96.46;101710.03;2010810;29;19912;-59
2022/03/03 03:18:54;;;;;;;;;;;;;;;-2.88;96.41;101709.16;2010869;29;20254;-59
2022/03/03 03:19:54;;;;;;;;;;;;;;;-2.89;96.92;101712.53;2017790;29;20009;-59
2022/03/03 03:20:55;;;;;;;;;;;;;;;-2.88;96.91;101710.03;2018016;29;19912;-59
2022/03/03 03:21:55;;;;;;;;;;;;;;;-2.87;96.85;101710.91;2011201;29;20035;-59
2022/03/03 03:22:55;;;;;;;;;;;;;;;-2.88;97.22;101704.91;2018186;29;19911;-59
2022/03/03 03:23:55;;;;;;;;;;;;;;;-2.87;97.25;101709.19;2018054;29;20048;-58
2022/03/03 03:24:55;;;;;;;;;;;;;;;-2.87;97.45;101703.25;2011598;29;20035;-59
2022/03/03 03:25:56;;;;;;;;;;;;;;;-2.88;97.08;101699.81;2011007;29;19916;-59
2022/03/03 03:26:56;;;;;;;;;;;;;;;-2.88;97.32;101706.59;2011160;29;19999;-59
2022/03/03 03:27:56;;;;;;;;;;;;;;;-2.90;96.95;101696.38;2010896;29;24087;-59
2022/03/03 03:28:56;;;;;;;;;;;;;;;-2.92;97.54;101698.00;2010944;29;19923;-59
2022/03/03 03:29:56;;;;;;;;;;;;;;;-2.95;97.14;101697.06;2017913;29;20506;-58
2022/03/03 03:30:57;;;;;;;;;;;;;;;-2.99;97.08;101702.09;2017778;29;19911;-58
2022/03/03 03:31:57;;;;;;;;;;;;;;;-3.02;96.95;101701.09;2010841;29;20099;-59
2022/03/03 03:32:57;;;;;;;;;;;;;;;-3.04;96.90;101692.56;2011033;29;19968;-58
2022/03/03 03:33:57;;;;;;;;;;;;;;;-3.04;97.15;101693.44;2010182;29;19912;-58
2022/03/03 03:34:58;;;;;;;;;;;;;;;-3.03;97.20;101694.28;2010201;29;19954;-59
2022/03/03 03:35:59;;;;;;;;;;;;;;;-3.02;96.88;101698.56;2010676;29;25150;-58
2022/03/03 03:36:59;;;;;;;;;;;;;;;-3.03;97.66;101694.28;2011006;29;19912;-59
2022/03/03 03:38:00;;;;;;;;;;;;;;;-3.05;97.74;101695.94;2018025;29;20110;-59
2022/03/03 03:39:00;;;;;;;;;;;;;;;-3.06;97.75;101689.97;2017452;29;24065;-58
2022/03/03 03:40:00;;;;;;;;;;;;;;;-3.04;97.59;101687.44;2010667;29;20512;-58
2022/03/03 03:41:01;;;;;;;;;;;;;;;-3.04;98.42;101693.44;2010718;29;25063;-58
2022/03/03 03:42:01;;;;;;;;;;;;;;;-3.04;97.87;101697.66;2010844;29;20476;-58
2022/03/03 03:43:01;;;;;;;;;;;;;;;-3.04;98.27;101692.56;2010814;29;20654;-59
2022/03/03 03:44:01;;;;;;;;;;;;;;;-3.03;98.71;101691.72;2017439;29;20509;-58
2022/03/03 03:45:03;;;;;;;18.57;12.50;;;;;;;-3.05;98.17;101695.94;2018138;29;20389;-58
2022/03/03 03:46:03;;;;;;;;;;;;;;;-3.01;97.58;101687.53;2011111;29;20021;-58
2022/03/03 03:47:04;;;;;;;;;;;;;;;-3.01;98.32;101682.44;2010240;29;19912;-58
2022/03/03 03:48:04;;;;;;;;;;;;;;;-2.99;98.68;101681.66;2010804;29;20043;-59
2022/03/03 03:49:05;;;;;;;;;;;;;;;-2.99;98.10;101688.44;2010809;29;20746;-59
2022/03/03 03:50:08;;;;;;;;;;;;;;;-2.98;98.32;101685.03;2013349;29;19912;-58
2022/03/03 03:51:08;;;;;;;;;;;;;;;-2.98;98.55;101683.38;2010754;29;19912;-58
2022/03/03 03:52:08;;;;;;;;;;;;;;;-2.96;98.18;101685.97;2010470;29;20069;-58
2022/03/03 03:53:09;;;;;;;;;;;;;;;-2.95;97.94;101676.63;2010150;29;19955;-58
2022/03/03 03:54:09;;;;;;;;;;;;;;;-2.96;98.62;101678.31;2010508;29;20029;-58
2022/03/03 03:55:11;;;;;;;;;;;;;;;-2.97;98.24;101679.97;2010937;29;19919;-58
2022/03/03 03:56:11;;;;;;;;;;;;;;;-2.95;98.36;101676.63;2011605;29;19912;-58
2022/03/03 03:57:11;;;;;;;;;;;;;;;-2.98;98.08;101677.38;2010527;29;19915;-58
2022/03/03 03:58:11;;;;;;;;;;;;;;;-3.02;97.80;101675.56;2010266;29;20392;-58
2022/03/03 03:59:11;;;;;;;;;;;;;;;-3.04;97.96;101672.13;2010600;29;19923;-59
2022/03/03 04:00:16;;;;;;;;;;;;;;;-3.06;97.04;101666.09;2010979;29;19923;-58
2022/03/03 04:01:16;;;;;;;;;;;;;;;-3.06;97.03;101673.75;2010426;29;20036;-58
2022/03/03 04:02:17;;;;;;;;;;;;;;;-3.04;97.91;101672.13;2010727;29;20258;-59
2022/03/03 04:03:17;;;;;;;;;;;;;;;-3.04;98.24;101674.69;2010891;29;20112;-58
2022/03/03 04:04:17;;;;;;;;;;;;;;;-3.02;98.01;101670.47;2010672;29;20037;-58
2022/03/03 04:05:18;;;;;;;;;;;;;;;-3.01;98.29;101678.16;2010435;29;20033;-58
2022/03/03 04:06:18;;;;;;;;;;;;;;;-3.00;97.78;101674.81;2010880;29;19912;-58
2022/03/03 04:07:18;;;;;;;;;;;;;;;-2.98;98.58;101678.25;2009921;29;19960;-58
2022/03/03 04:08:18;;;;;;;18.73;12.03;;;;;;;-2.98;98.48;101677.38;2010833;29;20402;-59
2022/03/03 04:09:19;;;;;;;18.23;12.65;;;;;;;-2.99;98.65;101679.09;2011179;29;20057;-58
2022/03/03 04:10:20;;;;;;;;;;;;;;;-2.98;98.36;101682.50;2010741;29;20037;-59
2022/03/03 04:11:20;;;;;;;;;;;;;;;-3.01;98.65;101679.88;2010741;29;19912;-58
2022/03/03 04:12:20;;;;;;;;;;;;;;;-3.03;99.06;101684.06;2011016;29;19912;-58
2022/03/03 04:13:21;;;;;;;;;;;;;;;-3.03;98.56;101686.63;2010725;29;19918;-58
2022/03/03 04:14:21;;;;;;;;;;;;;;;-3.03;98.58;101684.06;2010491;29;20050;-58
2022/03/03 04:15:22;;;;;;;;;;;;;;;-3.02;99.20;101683.22;2010285;29;20354;-59
2022/03/03 04:16:23;;;;;;;;;;;;;;;-2.99;98.71;101680.75;2013051;29;24082;-58
2022/03/03 04:17:23;;;;;;;;;;;;;;;-3.00;99.38;101690.13;2010454;29;19911;-58
2022/03/03 04:18:23;;;;;;;;;;;;;;;-3.00;98.84;101684.16;2010509;29;19957;-58
2022/03/03 04:19:23;;;;;;;;;;;;;;;-3.00;99.22;101685.03;2010125;29;25060;-59
2022/03/03 04:20:24;;;;;;;;;;;;;;;-2.99;99.13;101680.75;2010367;29;19912;-59
2022/03/03 04:21:25;;;;;;;;;;;;;;;-3.01;98.91;101677.31;2010594;29;19912;-58
2022/03/03 04:22:25;;;;;;;;;;;;;;;-3.06;98.32;101673.75;2010219;29;19919;-58
2022/03/03 04:23:25;;;;;;;;;;;;;;;-3.12;97.92;101670.22;2010124;29;19912;-58
2022/03/03 04:24:25;;;;;;;;;;;;;;;-3.14;98.24;101677.00;2009078;29;20036;-59
2022/03/03 04:25:25;;;;;;;;;;;;;;;-3.16;97.89;101677.75;2009773;29;20551;-58
2022/03/03 04:26:26;;;;;;;;;;;;;;;-3.16;98.79;101663.28;2010464;29;20030;-59
2022/03/03 04:27:26;;;;;;;;;;;;;;;-3.16;98.16;101670.97;2010008;29;24076;-59
2022/03/03 04:28:26;;;;;;;;;;;;;;;-3.17;98.49;101659.03;2010373;29;19912;-60
2022/03/03 04:29:26;;;;;;;;;;;;;;;-3.17;98.79;101661.56;2009840;29;19995;-58
2022/03/03 04:30:27;;;;;;;;;;;;;;;-3.19;98.77;101658.09;2010424;29;20332;-58
2022/03/03 04:31:27;;;;;;;;;;;;;;;-3.21;98.30;101664.88;2010486;29;19960;-58
2022/03/03 04:32:27;;;;;;;;;;;;;;;-3.21;98.92;101662.31;2010804;29;20032;-58
2022/03/03 04:33:27;;;;;;;;;;;;;;;-3.21;98.71;101659.75;2010357;29;20235;-58
2022/03/03 04:34:28;;;;;;;;;;;;;;;-3.22;98.12;101665.66;2010155;29;20033;-58
2022/03/03 04:35:30;;;;;;;;;;;;;;;-3.23;98.64;101661.38;2009475;29;20060;-58
2022/03/03 04:36:31;;;;;;;;;;;;;;;-3.25;98.52;101663.06;2009833;29;24179;-58
2022/03/03 04:37:31;;;;;;;;;;;;;;;-3.26;98.22;101657.06;2009952;29;19919;-59
2022/03/03 04:38:31;;;;;;;;;;;;;;;-3.24;98.62;101649.47;2009635;29;19922;-58
2022/03/03 04:39:32;;;;;;;;;;;;;;;-3.22;98.73;101647.78;2016877;29;24087;-58
2022/03/03 04:40:32;;;;;;;;;;;;;;;-3.22;98.89;101652.91;2017317;29;19993;-58
2022/03/03 04:41:32;;;;;;;;;;;;;;;-3.22;98.92;101649.50;2010064;29;20447;-59
2022/03/03 04:42:32;;;;;;;;;;;;;;;-3.20;98.84;101655.50;2017122;29;20312;-58
2022/03/03 04:43:32;;;;;;;;;;;;;;;-3.20;99.19;101653.81;2017258;29;19912;-58
2022/03/03 04:44:32;;;;;;;;;;;;;;;-3.19;99.34;101650.44;2010236;29;20069;-59
2022/03/03 04:45:33;;;;;;;;;;;;;;;-3.16;99.10;101647.97;2010430;29;20024;-59
2022/03/03 04:46:33;;;;;;;;;;;;;;;-3.13;99.56;101645.50;2010283;29;20462;-58
2022/03/03 04:47:33;;;;;;;;;;;;;;;-3.08;99.98;101649.88;2009865;29;24085;-59
2022/03/03 04:48:33;;;;;;;;;;;;;;;-3.08;99.96;101647.31;2010025;29;19924;-58
2022/03/03 04:49:33;;;;;;;;;;;;;;;-3.09;99.89;101645.59;2010212;29;20492;-59
2022/03/03 04:50:34;;;;;;;;;;;;;;;-3.11;99.81;101640.44;2017280;29;19919;-59
2022/03/03 04:51:36;;;;;;;;;;;;;;;-3.13;98.95;101637.84;2017504;29;19951;-58
2022/03/03 04:52:36;;;;;;;;;;;;;;;-3.16;98.87;101642.88;2010062;29;20036;-58
2022/03/03 04:53:37;;;;;;;;;;;;;;;-3.18;99.42;101639.38;2010201;29;20042;-59
2022/03/03 04:54:37;;;;;;;;;;;;;;;-3.20;98.89;101638.50;2009989;29;20165;-58
2022/03/03 04:55:37;;;;;;;;;;;;;;;-3.21;99.45;101634.22;2010254;29;19918;-59
2022/03/03 04:56:38;;;;;;;;;;;;;;;-3.21;99.26;101639.34;2010017;29;20293;-59
2022/03/03 04:57:38;;;;;;;;;;;;;;;-3.25;99.45;101637.53;2012759;29;20277;-57
2022/03/03 04:58:40;;;;;;;;;;;;;;;-3.27;99.03;101628.94;2010329;29;19960;-58
2022/03/03 04:59:40;;;;;;;;;;;;;;;-3.26;99.09;101640.88;2011197;29;20438;-59
2022/03/03 05:00:40;;;;;;;;;;;;;;;-3.27;98.65;101639.16;2017259;29;19919;-58
2022/03/03 05:01:40;;;;;;;;;;;;;;;-3.25;98.98;101637.53;2016882;29;24077;-58
2022/03/03 05:02:41;;;;;;;;;;;;;;;-3.25;99.31;101632.41;2010000;29;20350;-58
2022/03/03 05:03:41;;;;;;;;;;;;;;;-3.21;99.13;101639.34;2009851;29;20381;-58
2022/03/03 05:04:41;;;;;;;;;;;;;;;-3.21;99.89;101644.44;2009912;29;25063;-58
2022/03/03 05:05:41;;;;;;;;;;;;;;;-3.19;99.84;101637.66;2009635;29;24147;-58
2022/03/03 05:06:41;;;;;;;;;;;;;;;-3.17;99.55;101641.16;2009152;29;20016;-58
2022/03/03 05:07:42;;;;;;;;;;;;;;;-3.20;99.03;101651.28;2016103;29;19963;-58
2022/03/03 05:08:42;;;;;;;;;;;;;;;-3.22;99.19;101650.34;2016259;29;24062;-58
2022/03/03 05:09:42;;;;;;;;;;;;;;;-3.23;99.36;101640.97;2009030;29;20530;-58
2022/03/03 05:10:42;;;;;;;;;;;;;;;-3.22;98.82;101645.25;2009295;29;20041;-59